No Warnings, Watches, or Advisories

Active alerts


No alerts

Amazon Weather

Hours of Daylight

9 hrs 22 min 24 sec
of Daylight Today
39% Day 61% Night Which is
1 min 5 sec Shorter
Than Yesterday

South Webcam more information South Webcam


NorthWest Webcam more information NorthWest Webcam


You find our weather info also at:

UK Metoffice

Weather Underground

Mid-Atlantic Weather Network

WeatherlinkIP

Citizen Weather Observer Program (CWOP)

HAMweather, WeatherForYou, PWS Weather



Nearby METAR Reports

   
KDUJ - Du Bois, Pennsylvania, USA
Distance from station: NNE 16 mi
Updated: Dec 4 2020 4:53 am
Overcast  
Overcast  
   Wind: SW 9.2 mph
Wind: SW 9.2 mph
Temperature: 35.6°F
Wind Chill: 28.4°F
Dew Point: 17.6°F
Humidity: 48%
Barometer: 29.97 inHg
Clouds: Overcast
Visibility: 10 mi
Cloud details: Mostly Cloudy 5500 ft,
Overcast 7000 ft
KDUJ 040953Z AUTO 22008KT 10SM BKN055 OVC070 02/M08 A2997 RMK AO2 SLP162 T00221078
KIDI - Indiana/Stewart, Pennsylvania, USA
Distance from station: SSW 23 mi
Updated: Dec 4 2020 5:35 am
Overcast  
Overcast  
   Wind: SW 8.1 mph
Wind: SW 8.1 mph
Temperature: 37.4°F
Wind Chill: 30.2°F
Dew Point: 23°F
Humidity: 56%
Barometer: 30.03 inHg
Clouds: Overcast
Visibility: 10 mi
Cloud details: Overcast 7000 ft
KIDI 041035Z AUTO 23007KT 10SM OVC070 03/M05 A3003 RMK A01
KFIG - Clearfield, Pennsylvania, USA
Distance from station: ENE 31 mi
Updated: Dec 4 2020 4:54 am
Overcast  
Overcast  
   Wind: SW 4.6 mph
Wind: SW 4.6 mph
Temperature: 35.6°F
Wind Chill: 32°F
Dew Point: 17.6°F
Humidity: 48%
Barometer: 30 inHg
Clouds: Overcast
Visibility: 10 mi
Cloud details: Overcast 6500 ft
KFIG 040954Z AUTO 23004KT 10SM OVC065 02/M08 A3000 RMK AO2 SLP173 T00171078
KJST - Johnstown, Pennsylvania, USA
Distance from station: S 44 mi
Updated: Dec 4 2020 4:54 am
Overcast  
Overcast  
   Wind: SSW 10.4 mph
Wind: SSW 10.4 mph
Temperature: 37.4°F
Wind Chill: 30.2°F
Dew Point: 12.2°F
Humidity: 35%
Barometer: 29.99 inHg
Clouds: Overcast
Visibility: 10 mi
Cloud details: Overcast 7000 ft
KJST 040954Z AUTO 20009KT 10SM OVC070 03/M11 A2999 RMK AO2 SLP172 T00281111
KPIT - Pittsburgh, Pennsylvania, USA
Distance from station: WSW 74 mi
Updated: Dec 4 2020 5:51 am
Overcast  
Overcast  
   Wind: SSW 6.9 mph
Wind: SSW 6.9 mph
Temperature: 37.4°F
Wind Chill: 32°F
Dew Point: 21.2°F
Humidity: 52%
Barometer: 30.01 inHg
Clouds: Overcast
Visibility: 10 mi
Cloud details: Overcast 8000 ft
KPIT 041051Z 20006KT 10SM OVC080 03/M06 A3001 RMK AO2 SLP179 T00281056
KLBE - Latrobe/Westmorl, Pennsylvania, USA
Distance from station: SSW 52 mi
Updated: Dec 4 2020 5:35 am
Overcast  
Overcast  
   Wind: South 6.9 mph
Wind: South 6.9 mph
Temperature: 39.2°F
Wind Chill: 33.8°F
Dew Point: 21.2°F
Humidity: 48%
Barometer: 30.03 inHg
Clouds: Overcast
Visibility: 10 mi
Cloud details: Overcast 7500 ft
KLBE 041035Z AUTO 19006KT 10SM OVC075 04/M06 A3003 RMK AO2
KBTP - Butler Co., Pennsylvania, USA
Distance from station: WSW 52 mi
Updated: Dec 4 2020 4:56 am
Overcast  
Overcast  
   Wind: South 6.9 mph
Wind: South 6.9 mph
Temperature: 37.4°F
Wind Chill: 32°F
Dew Point: 23°F
Humidity: 56%
Barometer: 30 inHg
Clouds: Overcast
Visibility: 10 mi
Cloud details: Overcast 7500 ft
KBTP 040956Z AUTO 19006KT 10SM OVC075 03/M05 A3000 RMK AO2 SLP176 T00281050
KUCP - New Castle Muni, Pennsylvania, USA
Distance from station: W 75 mi
Updated: Dec 4 2020 4:56 am
Overcast  
Overcast  
   Wind: South 3.5 mph
Wind: South 3.5 mph
Temperature: 37.4°F
Wind Chill: 35.6°F
Dew Point: 24.8°F
Humidity: 60%
Barometer: 30 inHg
Clouds: Overcast
Visibility: 10 mi
Cloud details: Few Clouds 5000 ft,
Mostly Cloudy 6500 ft,
Overcast 9500 ft
KUCP 040956Z AUTO 18003KT 10SM FEW050 BKN065 OVC095 03/M04 A3000 RMK AO2 SLP182 P0001 T00281044 PWINO $
KFKL - Franklin, Pennsylvania, USA
Distance from station: WNW 54 mi
Updated: Dec 4 2020 4:56 am
Light Rain, Overcast  
Light Rain, Overcast  
   Wind: SSW 6.9 mph
Wind: SSW 6.9 mph
Temperature: 35.6°F
Wind Chill: 30.2°F
Dew Point: 24.8°F
Humidity: 65%
Barometer: 29.97 inHg
Clouds: Overcast
Visibility: 10 mi
Cloud details: Mostly Cloudy 3400 ft,
Overcast 4400 ft
KFKL 040956Z AUTO 21006KT 10SM -RA BKN034 OVC044 02/M04 A2997 RMK AO2 SLP165 P0000 T00171044 FZRANO
KAOO - Altoona, Pennsylvania, USA
Distance from station: SE 57 mi
Updated: Dec 4 2020 4:53 am
Mostly Cloudy  
Mostly Cloudy  
   Wind: SSW 4.6 mph
Wind: SSW 4.6 mph
Temperature: 39.2°F
Wind Chill: 35.6°F
Dew Point: 15.8°F
Humidity: 39%
Barometer: 30.03 inHg
Clouds: Mostly Cloudy
Visibility: 10 mi
Cloud details: Mostly Cloudy 7500 ft
KAOO 040953Z AUTO 20004KT 10SM BKN075 04/M09 A3003 RMK AO2 SLP178 T00441089
KUNV - State College, Pennsylvania, USA
Distance from station: E 61 mi
Updated: Dec 4 2020 5:53 am
Mostly Cloudy  
Mostly Cloudy  
   Wind: West 5.8 mph
Wind: West 5.8 mph
Temperature: 37.4°F
Wind Chill: 33.8°F
Dew Point: 12.2°F
Humidity: 35%
Barometer: 30.01 inHg
Clouds: Mostly Cloudy
Visibility: 10 mi
Cloud details: Mostly Cloudy 8000 ft
KUNV 041053Z 27005KT 10SM BKN080 03/M11 A3001
KBFD - Bradford, Pennsylvania, USA
Distance from station: NNE 62 mi
Updated: Dec 4 2020 5:37 am
Light Snow, Overcast  
Light Snow, Overcast  
   Wind: SW 5.8 mph
Wind: SW 5.8 mph
Temperature: 32°F
Wind Chill: 26.6°F
Dew Point: 26.6°F
Humidity: 80%
Barometer: 29.93 inHg
Clouds: Overcast
Visibility: 2 mi
Cloud details: Partly Cloudy 1400 ft,
Overcast 2400 ft
KBFD 041037Z AUTO 23005KT 2SM -SN SCT014 OVC024 00/M03 A2993 RMK AO2 P0001 T00001033

Script developed by  Saratoga-weather.org Adapted for the template by  Weerstation Leuven

Equipment we use:

Weather-station
Davis VP2

Weather-program
Cumulus

Weather-server
Dell Latitude e5450

Provider
Host On A Rope

Davis VP2

Cumulus

Dell Latitude e5450

Host On A Rope